createdAt,value
2022-10-11T00:10:30.349Z,92.04
2022-10-11T00:13:09.071Z,91.89
2022-10-11T00:26:12.479Z,92.71
2022-10-11T00:41:55.750Z,93.16
2022-10-11T00:44:33.915Z,92.44
2022-10-11T00:57:40.729Z,93.07
2022-10-11T01:00:19.620Z,92.54
2022-10-11T01:13:24.451Z,92.79
2022-10-11T01:26:43.977Z,92.60
2022-10-11T01:29:35.458Z,92.71
2022-10-11T01:42:39.430Z,93.03
2022-10-11T01:45:18.926Z,92.88
2022-10-11T01:48:04.468Z,92.97
2022-10-11T01:50:48.267Z,92.73
2022-10-11T01:53:29.655Z,92.36
2022-10-11T01:56:31.840Z,92.54
2022-10-11T01:59:19.957Z,92.00
2022-10-11T02:02:50.862Z,91.87
2022-10-11T02:05:31.754Z,91.86
2022-10-11T02:08:34.411Z,91.25
2022-10-11T02:11:23.240Z,91.19
2022-10-11T02:14:11.145Z,91.70
2022-10-11T02:16:58.306Z,91.67
2022-10-11T02:19:38.865Z,91.14
2022-10-11T02:22:28.966Z,91.06
2022-10-11T02:25:09.957Z,90.85
2022-10-11T02:27:48.852Z,91.15
2022-10-11T02:30:26.440Z,91.29
2022-10-11T02:33:06.018Z,91.05
2022-10-11T02:35:47.800Z,91.16
2022-10-11T02:38:28.815Z,91.41
2022-10-11T02:41:15.483Z,91.70
2022-10-11T02:44:00.799Z,92.10
2022-10-11T02:46:40.438Z,91.84
2022-10-11T02:59:42.328Z,92.80
2022-10-11T03:02:21.165Z,92.33
2022-10-11T03:04:59.286Z,92.68
2022-10-11T03:07:37.526Z,92.36
2022-10-11T03:10:15.934Z,92.24
2022-10-11T03:12:53.958Z,92.64
2022-10-11T03:15:32.413Z,92.44
2022-10-11T03:28:34.990Z,93.46
2022-10-11T03:31:13.876Z,93.45
2022-10-11T03:33:52.020Z,92.88
2022-10-11T03:36:30.415Z,92.28
2022-10-11T03:39:08.830Z,92.59
2022-10-11T03:41:46.634Z,92.55
2022-10-11T03:44:24.705Z,92.76
2022-10-11T03:47:03.211Z,92.38
2022-10-11T03:49:43.632Z,92.28
2022-10-11T04:02:46.696Z,92.42
2022-10-11T04:05:24.386Z,92.43
2022-10-11T04:08:02.656Z,92.03
2022-10-11T04:10:41.013Z,92.08
2022-10-11T04:13:19.018Z,92.30
2022-10-11T04:15:57.319Z,91.90
2022-10-11T04:18:35.359Z,92.43
2022-10-11T04:21:13.537Z,92.21
2022-10-11T04:23:51.754Z,92.54
2022-10-11T04:26:30.363Z,92.35
2022-10-11T04:29:08.385Z,92.66
2022-10-11T04:31:46.349Z,92.83
2022-10-11T04:34:24.776Z,92.56
2022-10-11T04:47:27.537Z,94.37
2022-10-11T04:50:06.481Z,93.77
2022-10-11T04:52:44.352Z,93.88
2022-10-11T04:55:22.799Z,93.31
2022-10-11T05:08:25.838Z,93.79
2022-10-11T05:11:06.919Z,93.41
2022-10-11T05:13:46.028Z,93.69
2022-10-11T05:16:24.939Z,93.43
2022-10-11T05:19:02.028Z,93.40
2022-10-11T05:21:40.287Z,93.44
2022-10-11T05:24:18.431Z,93.62
2022-10-11T05:26:59.808Z,93.60
2022-10-11T05:29:41.191Z,92.97
2022-10-11T05:32:19.425Z,92.98
2022-10-11T05:34:57.868Z,92.43
2022-10-11T05:37:35.776Z,92.34
2022-10-11T05:40:14.152Z,91.55
2022-10-11T05:42:52.224Z,90.87
2022-10-11T05:45:32.862Z,89.15
2022-10-11T05:48:10.563Z,88.38
2022-10-11T05:50:48.494Z,88.06
2022-10-11T05:53:26.833Z,89.01
2022-10-11T05:56:05.410Z,89.91
2022-10-11T05:58:42.994Z,90.26
2022-10-11T06:01:26.232Z,90.42
2022-10-11T06:04:04.913Z,90.87
2022-10-11T06:06:42.432Z,90.86
2022-10-11T06:09:20.738Z,90.66
2022-10-11T06:11:58.817Z,90.77
2022-10-11T06:14:50.809Z,90.65
2022-10-11T06:17:42.438Z,90.62
2022-10-11T06:20:34.405Z,90.50
2022-10-11T06:23:41.275Z,87.51
2022-10-11T06:26:36.838Z,86.66
2022-10-11T06:29:31.724Z,87.45
2022-10-11T06:32:35.841Z,86.91
2022-10-11T06:35:08.154Z,86.99
2022-10-11T06:37:59.778Z,86.84
2022-10-11T06:41:16.377Z,86.18
2022-10-11T06:44:14.260Z,86.74
2022-10-11T06:47:09.019Z,86.21
2022-10-11T06:50:06.147Z,85.52
2022-10-11T06:53:16.104Z,85.24
2022-10-11T06:56:10.677Z,85.55
2022-10-11T06:59:03.763Z,85.76
2022-10-11T07:02:00.781Z,85.99
2022-10-11T07:04:52.368Z,86.23
2022-10-11T07:07:47.563Z,86.60
2022-10-11T07:10:48.145Z,86.34
2022-10-11T07:13:50.219Z,85.49
2022-10-11T07:16:54.112Z,85.83
2022-10-11T07:19:49.429Z,86.44
2022-10-11T07:22:41.657Z,86.11
2022-10-11T07:25:36.172Z,85.35
2022-10-11T07:28:31.279Z,85.03
2022-10-11T07:31:26.525Z,84.75
2022-10-11T07:34:27.433Z,84.57
2022-10-11T07:37:23.139Z,84.42
2022-10-11T07:40:15.152Z,83.44
2022-10-11T07:43:07.408Z,83.02
2022-10-11T07:46:04.197Z,82.25
2022-10-11T07:48:58.983Z,82.62
2022-10-11T07:51:53.633Z,82.93
2022-10-11T07:54:57.781Z,83.04
2022-10-11T07:57:49.605Z,82.68
2022-10-11T08:00:44.127Z,82.85
2022-10-11T08:03:39.977Z,82.46
2022-10-11T08:06:51.090Z,82.97
2022-10-11T08:09:54.746Z,82.86
2022-10-11T08:12:49.768Z,82.07
2022-10-11T08:15:51.134Z,81.47
2022-10-11T08:18:46.727Z,80.44
2022-10-11T08:21:41.980Z,80.89
2022-10-11T08:24:38.529Z,81.15
2022-10-11T08:27:31.023Z,80.84
2022-10-11T08:40:55.609Z,80.76
2022-10-11T08:44:01.071Z,80.71
2022-10-11T08:47:23.502Z,80.08
2022-10-11T08:49:51.393Z,81.15
2022-10-11T08:52:27.792Z,80.97
2022-10-11T08:55:06.012Z,80.71
2022-10-11T08:57:35.842Z,81.05
2022-10-11T09:00:11.134Z,80.34
2022-10-11T09:03:06.940Z,79.86
2022-10-11T09:06:09.485Z,79.68
2022-10-11T09:08:46.046Z,80.08
2022-10-11T09:11:25.152Z,80.41
2022-10-11T09:14:30.694Z,80.09
2022-10-11T09:17:08.905Z,80.05
2022-10-11T09:19:44.323Z,79.82
2022-10-11T09:22:39.976Z,78.85
2022-10-11T09:25:23.808Z,78.84
2022-10-11T09:28:02.859Z,79.61
2022-10-11T09:30:30.377Z,79.50
2022-10-11T09:33:32.696Z,79.21
2022-10-11T09:36:00.428Z,79.71
2022-10-11T09:39:06.808Z,78.82
2022-10-11T09:41:41.662Z,78.66
2022-10-11T09:44:11.668Z,79.35
2022-10-11T09:46:41.298Z,79.33
2022-10-11T09:49:17.587Z,79.08
2022-10-11T09:51:52.834Z,78.44
2022-10-11T09:54:27.211Z,78.67
2022-10-11T09:56:54.089Z,79.24
2022-10-11T09:59:29.458Z,78.11
2022-10-11T10:02:19.222Z,77.27
2022-10-11T10:05:18.280Z,77.39
2022-10-11T10:08:05.345Z,77.89
2022-10-11T10:10:38.947Z,77.30
2022-10-11T10:13:36.947Z,77.33
2022-10-11T10:16:05.517Z,77.68
2022-10-11T10:18:43.044Z,76.85
2022-10-11T10:21:13.181Z,77.25
2022-10-11T10:23:40.134Z,76.88
2022-10-11T10:26:17.343Z,76.32
2022-10-11T10:29:00.013Z,75.20
2022-10-11T10:31:44.414Z,76.03
2022-10-11T10:34:31.796Z,75.26
2022-10-11T10:37:04.401Z,75.51
2022-10-11T10:39:42.955Z,76.53
2022-10-11T10:42:15.997Z,76.24
2022-10-11T10:44:43.240Z,76.59
2022-10-11T10:47:15.708Z,75.67
2022-10-11T10:49:54.445Z,76.54
2022-10-11T10:52:31.717Z,76.66
2022-10-11T10:55:22.879Z,76.12
2022-10-11T10:58:33.209Z,76.31
2022-10-11T11:01:03.649Z,75.71
2022-10-11T11:03:36.353Z,75.97
2022-10-11T11:06:08.071Z,76.49
2022-10-11T11:08:47.085Z,76.20
2022-10-11T11:11:26.756Z,74.85
2022-10-11T11:14:19.767Z,74.99
2022-10-11T11:17:12.814Z,74.94
2022-10-11T11:20:02.539Z,74.73
2022-10-11T11:22:57.126Z,74.05
2022-10-11T11:25:47.339Z,74.04
2022-10-11T11:28:23.533Z,74.80
2022-10-11T11:31:14.999Z,74.77
2022-10-11T11:34:06.796Z,75.22
2022-10-11T11:36:46.535Z,74.99
2022-10-11T11:39:27.926Z,74.66
2022-10-11T11:42:12.181Z,75.64
2022-10-11T11:44:51.373Z,74.72
2022-10-11T11:47:36.011Z,74.58
2022-10-11T11:50:23.018Z,74.87
2022-10-11T11:53:16.824Z,75.26
2022-10-11T11:55:49.320Z,75.56
2022-10-11T11:58:44.302Z,75.24
2022-10-11T12:01:26.516Z,75.12
2022-10-11T12:04:03.514Z,75.11
2022-10-11T12:06:43.724Z,75.31
2022-10-11T12:09:21.537Z,75.51
2022-10-11T12:12:00.731Z,74.58
2022-10-11T12:14:33.393Z,74.40
2022-10-11T12:17:22.884Z,74.77
2022-10-11T12:20:01.631Z,74.51
2022-10-11T12:22:28.275Z,74.82
2022-10-11T12:25:18.412Z,74.64
2022-10-11T12:27:46.739Z,74.32
2022-10-11T12:30:44.417Z,74.38
2022-10-11T12:33:24.524Z,74.00
2022-10-11T12:35:51.300Z,73.89
2022-10-11T12:38:35.395Z,72.75
2022-10-11T12:41:13.246Z,73.05
2022-10-11T12:43:49.038Z,73.23
2022-10-11T12:46:33.987Z,72.77
2022-10-11T12:49:12.770Z,73.26
2022-10-11T12:51:56.018Z,72.84
2022-10-11T12:54:42.354Z,72.63
2022-10-11T12:57:12.511Z,72.51
2022-10-11T12:59:44.294Z,71.90
2022-10-11T13:02:39.302Z,71.71
2022-10-11T13:05:16.981Z,71.98
2022-10-11T13:07:43.924Z,72.32
2022-10-11T13:10:15.780Z,72.37
2022-10-11T13:12:43.589Z,72.62
2022-10-11T13:15:15.936Z,72.50
2022-10-11T13:17:43.291Z,73.01
2022-10-11T13:20:20.778Z,72.59
2022-10-11T13:22:50.321Z,72.47
2022-10-11T13:25:23.098Z,72.06
2022-10-11T13:27:50.983Z,72.47
2022-10-11T13:30:28.513Z,72.41
2022-10-11T13:32:55.495Z,72.83
2022-10-11T13:35:36.947Z,72.37
2022-10-11T13:38:05.139Z,72.49
2022-10-11T13:40:32.009Z,72.15
2022-10-11T13:43:00.262Z,72.05
2022-10-11T13:45:30.651Z,72.29
2022-10-11T13:47:57.497Z,71.83
2022-10-11T13:50:33.447Z,71.78
2022-10-11T13:53:21.352Z,72.11
2022-10-11T13:55:53.701Z,72.42
2022-10-11T13:58:26.265Z,72.25
2022-10-11T14:00:55.531Z,71.89
2022-10-11T14:03:22.528Z,71.77
2022-10-11T14:05:59.430Z,71.51
2022-10-11T14:08:58.493Z,71.65
2022-10-11T14:11:36.341Z,71.54
2022-10-11T14:14:31.001Z,71.72
2022-10-11T14:17:05.069Z,72.04
2022-10-11T14:19:32.891Z,72.27
2022-10-11T14:21:59.528Z,71.81
2022-10-11T14:24:26.233Z,71.90
2022-10-11T14:26:54.722Z,71.54
2022-10-11T14:29:33.162Z,71.25
2022-10-11T14:32:05.786Z,71.47
2022-10-11T14:34:32.940Z,71.69
2022-10-11T14:37:01.335Z,71.51
2022-10-11T14:39:30.348Z,71.52
2022-10-11T14:41:57.503Z,71.82
2022-10-11T14:44:24.376Z,71.60
2022-10-11T14:46:54.595Z,71.24
2022-10-11T14:49:26.796Z,71.39
2022-10-11T14:51:57.191Z,71.18
2022-10-11T14:54:25.362Z,71.25
2022-10-11T14:56:53.446Z,71.24
2022-10-11T14:59:27.488Z,71.41
2022-10-11T15:01:54.553Z,71.43
2022-10-11T15:04:21.965Z,71.48
2022-10-11T15:06:49.249Z,71.79
2022-10-11T15:09:17.115Z,71.17
2022-10-11T15:11:44.191Z,71.47
2022-10-11T15:14:11.750Z,71.49
2022-10-11T15:16:40.332Z,71.41
2022-10-11T15:19:10.118Z,71.22
2022-10-11T15:21:37.191Z,70.94
2022-10-11T15:24:04.008Z,71.15
2022-10-11T15:26:30.741Z,71.02
2022-10-11T15:28:57.822Z,70.71
2022-10-11T15:31:24.545Z,70.69
2022-10-11T15:33:51.747Z,71.05
2022-10-11T15:36:21.817Z,71.14
2022-10-11T15:38:49.007Z,70.67
2022-10-11T15:41:17.401Z,70.87
2022-10-11T15:43:45.564Z,70.91
2022-10-11T15:46:14.870Z,70.72
2022-10-11T15:48:41.544Z,70.55
2022-10-11T15:51:08.373Z,70.09
2022-10-11T15:53:35.211Z,70.40
2022-10-11T15:56:04.807Z,70.03
2022-10-11T15:58:37.083Z,70.22
2022-10-11T16:01:06.600Z,70.24
2022-10-11T16:03:34.222Z,70.03
2022-10-11T16:06:05.167Z,70.42
2022-10-11T16:08:34.590Z,70.44
2022-10-11T16:11:01.366Z,70.96
2022-10-11T16:13:28.032Z,71.41
2022-10-11T16:15:55.122Z,71.13
2022-10-11T16:18:22.432Z,71.44
2022-10-11T16:20:51.674Z,71.37
2022-10-11T16:23:19.980Z,72.54
2022-10-11T16:25:55.960Z,73.03
2022-10-11T16:28:22.839Z,73.39
2022-10-11T16:30:49.533Z,73.82
2022-10-11T16:33:16.338Z,74.10
2022-10-11T16:35:43.392Z,74.37
2022-10-11T16:38:10.375Z,74.34
2022-10-11T16:40:38.625Z,74.91
2022-10-11T16:43:07.966Z,75.23
2022-10-11T16:45:35.352Z,75.34
2022-10-11T16:48:02.087Z,75.34
2022-10-11T16:50:29.094Z,74.92
2022-10-11T16:52:56.386Z,75.57
2022-10-11T16:55:23.508Z,75.88
2022-10-11T16:57:51.870Z,76.20
2022-10-11T17:00:18.626Z,76.10
2022-10-11T17:02:45.417Z,76.19
2022-10-11T17:05:13.741Z,76.88
2022-10-11T17:07:40.792Z,76.96
2022-10-11T17:10:07.938Z,76.78
2022-10-11T17:12:37.118Z,76.65
2022-10-11T17:15:04.857Z,77.09
2022-10-11T17:17:31.584Z,77.02
2022-10-11T17:19:58.333Z,76.50
2022-10-11T17:22:28.426Z,76.70
2022-10-11T17:24:55.302Z,77.01
2022-10-11T17:27:22.224Z,76.90
2022-10-11T17:29:48.925Z,76.84
2022-10-11T17:32:15.665Z,77.25
2022-10-11T17:34:42.533Z,77.36
2022-10-11T17:37:10.300Z,77.21
2022-10-11T17:39:36.984Z,77.13
2022-10-11T17:42:07.379Z,77.29
2022-10-11T17:44:35.146Z,77.20
2022-10-11T17:47:02.895Z,77.14
2022-10-11T17:49:30.267Z,77.40
2022-10-11T17:51:57.122Z,77.17
2022-10-11T17:54:24.351Z,77.56
2022-10-11T17:56:50.987Z,77.37
2022-10-11T17:59:21.256Z,77.45
2022-10-11T18:01:49.136Z,77.46
2022-10-11T18:04:16.886Z,77.30
2022-10-11T18:06:45.043Z,77.14
2022-10-11T18:09:13.784Z,77.47
2022-10-11T18:11:40.462Z,77.54
2022-10-11T18:14:07.290Z,77.70
2022-10-11T18:16:37.066Z,77.63
2022-10-11T18:19:05.850Z,77.79
2022-10-11T18:21:34.684Z,77.84
2022-10-11T18:24:05.142Z,78.02
2022-10-11T18:26:31.872Z,77.89
2022-10-11T18:28:59.015Z,77.62
2022-10-11T18:31:29.898Z,77.75
2022-10-11T18:33:56.748Z,77.94
2022-10-11T18:36:26.869Z,77.46
2022-10-11T18:38:56.394Z,77.19
2022-10-11T18:41:24.993Z,76.94
2022-10-11T18:43:53.987Z,77.16
2022-10-11T18:46:21.511Z,77.37
2022-10-11T18:48:50.222Z,77.40
2022-10-11T18:51:19.673Z,77.64
2022-10-11T18:53:47.363Z,77.39
2022-10-11T18:56:15.828Z,77.60
2022-10-11T18:58:44.215Z,77.84
2022-10-11T19:01:26.092Z,77.50
2022-10-11T19:03:56.458Z,77.33
2022-10-11T19:06:26.810Z,77.21
2022-10-11T19:08:56.346Z,77.15
2022-10-11T19:11:25.355Z,77.19
2022-10-11T19:14:10.089Z,76.91
2022-10-11T19:16:39.059Z,77.04
2022-10-11T19:19:06.489Z,76.99
2022-10-11T19:21:33.661Z,77.03
2022-10-11T19:24:00.702Z,77.03
2022-10-11T19:26:31.735Z,76.79
2022-10-11T19:29:04.603Z,76.61
2022-10-11T19:31:32.281Z,76.96
2022-10-11T19:33:59.041Z,76.98
2022-10-11T19:36:26.198Z,76.86
2022-10-11T19:38:56.859Z,76.54
2022-10-11T19:41:24.775Z,76.74
2022-10-11T19:43:52.086Z,76.84
2022-10-11T19:46:37.902Z,76.75
2022-10-11T19:49:08.606Z,76.58
2022-10-11T19:51:35.273Z,76.56
2022-10-11T19:54:04.515Z,76.41
2022-10-11T19:56:32.317Z,76.74
2022-10-11T19:58:59.405Z,76.92
2022-10-11T20:01:28.443Z,76.74
2022-10-11T20:03:59.176Z,76.82
2022-10-11T20:06:27.857Z,76.88
2022-10-11T20:09:16.793Z,76.73
2022-10-11T20:11:41.968Z,77.08
2022-10-11T20:14:09.271Z,77.14
2022-10-11T20:16:36.094Z,77.31
2022-10-11T20:19:03.876Z,77.31
2022-10-11T20:21:30.743Z,77.13
2022-10-11T20:24:02.805Z,77.09
2022-10-11T20:26:30.572Z,77.13
2022-10-11T20:29:02.223Z,77.64
2022-10-11T20:31:52.577Z,78.16
2022-10-11T20:34:30.446Z,78.52
2022-10-11T20:36:57.247Z,78.81
2022-10-11T20:39:24.452Z,78.35
2022-10-11T20:41:51.173Z,78.20
2022-10-11T20:44:18.057Z,77.74
2022-10-11T20:46:44.828Z,77.46
2022-10-11T20:49:12.384Z,77.22
2022-10-11T20:51:41.873Z,76.84
2022-10-11T20:54:09.000Z,77.06
2022-10-11T20:56:37.315Z,76.95
2022-10-11T20:59:05.261Z,76.68
2022-10-11T21:01:34.667Z,77.07
2022-10-11T21:04:02.135Z,77.37
2022-10-11T21:06:30.455Z,77.49
2022-10-11T21:08:58.933Z,77.37
2022-10-11T21:11:31.070Z,77.18
2022-10-11T21:14:03.243Z,77.14
2022-10-11T21:16:30.119Z,77.33
2022-10-11T21:18:58.024Z,77.01
2022-10-11T21:21:25.279Z,76.97
2022-10-11T21:23:59.691Z,76.96
2022-10-11T21:26:27.430Z,76.81
2022-10-11T21:28:54.442Z,76.99
2022-10-11T21:31:22.300Z,77.04
2022-10-11T21:33:49.223Z,77.82
2022-10-11T21:36:21.061Z,77.64
2022-10-11T21:38:48.590Z,77.65
2022-10-11T21:41:25.820Z,77.76
2022-10-11T21:43:53.106Z,77.47
2022-10-11T21:46:41.732Z,77.61
2022-10-11T21:49:12.562Z,77.55
2022-10-11T21:51:39.338Z,77.28
2022-10-11T21:54:06.049Z,76.90
2022-10-11T21:56:32.831Z,76.92
2022-10-11T21:58:59.567Z,76.85
2022-10-11T22:01:26.355Z,76.99
2022-10-11T22:03:53.804Z,77.12
2022-10-11T22:06:21.384Z,77.27
2022-10-11T22:08:49.835Z,77.22
2022-10-11T22:11:16.730Z,77.16
2022-10-11T22:13:43.385Z,76.83
2022-10-11T22:16:11.789Z,76.45
2022-10-11T22:18:38.999Z,76.97
2022-10-11T22:21:07.960Z,77.47
2022-10-11T22:23:34.956Z,77.91
2022-10-11T22:26:12.108Z,78.26
2022-10-11T22:28:39.099Z,78.18
2022-10-11T22:31:07.135Z,77.88
2022-10-11T22:33:34.317Z,78.21
2022-10-11T22:36:02.524Z,77.95
2022-10-11T22:38:29.321Z,78.09
2022-10-11T22:40:58.373Z,78.04
2022-10-11T22:43:25.080Z,77.98
2022-10-11T22:45:51.777Z,78.13
2022-10-11T22:48:18.501Z,78.25
2022-10-11T22:50:45.238Z,78.03
2022-10-11T22:53:13.410Z,78.06
2022-10-11T22:55:40.427Z,78.22
2022-10-11T22:58:07.415Z,78.03
2022-10-11T23:00:34.177Z,78.18
2022-10-11T23:03:00.893Z,78.15
2022-10-11T23:05:27.687Z,78.17
2022-10-11T23:07:54.635Z,77.98
2022-10-11T23:10:21.266Z,77.78
2022-10-11T23:12:48.031Z,78.02
2022-10-11T23:15:15.292Z,77.63
2022-10-11T23:17:42.370Z,77.82
2022-10-11T23:20:09.738Z,77.55
2022-10-11T23:22:36.665Z,77.44
2022-10-11T23:25:03.962Z,77.58
2022-10-11T23:27:30.654Z,77.20
2022-10-11T23:29:57.914Z,77.18
2022-10-11T23:32:24.802Z,76.94
2022-10-11T23:34:51.848Z,76.34
2022-10-11T23:37:18.566Z,76.86
2022-10-11T23:39:45.508Z,76.26
2022-10-11T23:42:12.303Z,76.23
2022-10-11T23:44:39.003Z,76.39
2022-10-11T23:47:05.803Z,76.49
2022-10-11T23:49:32.528Z,76.58
2022-10-11T23:52:00.729Z,76.30
2022-10-11T23:54:27.431Z,76.40
2022-10-11T23:56:54.719Z,76.50
2022-10-11T23:59:21.544Z,76.21
